Portada
METAR-TAF:

METAR-TAF

Aeroports :

Aeroport Internacional Diori Hamani

Niamey, Níger

latitud: 13-29N, longitud: 002-10E, altitud: 223 m

Observació

L'informe es va fer fa 46 minuts, a les 17:00 UTC
Vent 12 kt del Est/Nord-Est
Temperatura 31°C
Humitat 5%
Pressió 1014 hPa
Visibilitat: 2000 m
Pols estès

METAR: DRRN 261700Z 07012KT 2000 DU NSC 31/M13 Q1014 NOSIG

Hora: 18:46 (17:46 UTC)

Pronòstic

L'informe es va fer fa 6 hores i 46 minuts, a les 11:00 UTC
Pronòstic vàlid del 26 a les 12 UTC al 27 a les 18 UTC
Vent 15 kt del Est
Visibilitat: 2000 m
Pols estès
Evolucionant progressivament
l' 26 a les 16 UTC al 26 a les 18 UTC
Visibilitat: 1400 m
Pols estès
Evolucionant progressivament
l' 26 a les 22 UTC al 26 a les 24 UTC
Visibilitat: 2800 m
Pols estès

TAF: DRRN 261100Z 2612/2718 10015KT 2000 DU NSC BECMG 2616/2618 1400 DU BECMG 2622/2624 2800 DU

Observacions i pronòstics meteorològics de més de 4000 aeroports (METAR i TAF).

Les estacions disponibles són els punts grocs i vermells al mapa.

Posi el ratolí al punt desitjat per veure el nom de l'estació.

Feu clic per veure les observacions i els pronòstics meteorològics.

Per canviar el mapa: feu clic els botons verds amb una creu de color negre per apropar; al botó verd amb un guió per allunyar la imatge; o en les fletxes verdes per a mapes adjacents.


METAR-TAF: